Time;durP1;ratioP1;P1;durP2;ratioP2;P2;SDS_P1;SDS_P2;PMS_P1;PMS_P2;Temp;Humidity;BMP_temperature;BMP_pressure;BME280_temperature;BME280_humidity;BME280_pressure;Samples;Min_cycle;Max_cycle;Signal;HPM_P1;HPM_P2
2021/01/15 00:02:08;;;;;;;8.77;7.72;;;-0.60;99.90;;;;;;5065776;28;20204;-69
2021/01/15 00:04:34;;;;;;;8.98;7.22;;;-0.60;99.90;;;;;;5064434;28;20584;-70
2021/01/15 00:07:05;;;;;;;12.57;8.20;;;-0.60;99.90;;;;;;5065506;28;20557;-69
2021/01/15 00:09:32;;;;;;;11.35;8.48;;;-0.50;99.90;;;;;;5064222;28;20216;-68
2021/01/15 00:12:00;;;;;;;9.32;8.23;;;-0.60;99.90;;;;;;5065530;28;20701;-70
2021/01/15 00:14:26;;;;;;;13.45;7.82;;;-0.60;99.90;;;;;;5066859;28;20220;-70
2021/01/15 00:16:54;;;;;;;13.77;8.43;;;-0.60;99.90;;;;;;5065763;28;20242;-71
2021/01/15 00:19:20;;;;;;;11.40;8.02;;;-0.60;99.90;;;;;;5027867;28;20700;-71
2021/01/15 00:21:49;;;;;;;12.38;8.10;;;-0.60;99.90;;;;;;5004583;28;20269;-70
2021/01/15 00:24:17;;;;;;;11.98;7.20;;;-0.60;99.90;;;;;;5005700;28;20225;-70
2021/01/15 00:26:44;;;;;;;9.10;7.90;;;-0.50;99.90;;;;;;5005521;28;20226;-70
2021/01/15 00:29:13;;;;;;;9.93;8.20;;;-0.60;99.90;;;;;;5006113;28;20308;-70
2021/01/15 00:31:42;;;;;;;12.27;7.97;;;-0.60;99.90;;;;;;5005188;28;20592;-73
2021/01/15 00:34:09;;;;;;;10.88;7.60;;;-0.60;99.90;;;;;;5004914;28;20222;-70
2021/01/15 00:36:36;;;;;;;10.63;8.18;;;-0.60;99.90;;;;;;5004759;28;20202;-70
2021/01/15 00:39:03;;;;;;;8.73;7.78;;;-0.60;99.90;;;;;;5005452;28;20206;-69
2021/01/15 00:41:34;;;;;;;10.38;7.88;;;-0.60;99.90;;;;;;5005466;28;20578;-69
2021/01/15 00:44:00;;;;;;;10.80;7.95;;;-0.60;99.90;;;;;;4971604;28;20236;-69
2021/01/15 00:46:31;;;;;;;12.43;7.95;;;-0.60;99.90;;;;;;5002387;28;20222;-69
2021/01/15 00:48:58;;;;;;;9.27;7.25;;;-0.60;99.90;;;;;;5005871;28;20211;-71
2021/01/15 00:51:24;;;;;;;12.00;8.38;;;-0.60;99.90;;;;;;5006086;28;20206;-69
2021/01/15 00:53:50;;;;;;;9.95;7.47;;;-0.70;99.90;;;;;;5005488;28;20260;-71
2021/01/15 00:56:17;;;;;;;10.43;8.05;;;-0.70;99.90;;;;;;5007789;28;20198;-73
2021/01/15 00:58:44;;;;;;;10.95;7.40;;;-0.70;99.90;;;;;;5008996;28;20206;-72
2021/01/15 01:01:12;;;;;;;8.48;7.10;;;-0.70;99.90;;;;;;5009315;28;20252;-73
2021/01/15 01:03:42;;;;;;;9.77;7.03;;;-0.60;99.90;;;;;;5008283;28;20203;-73
2021/01/15 01:06:10;;;;;;;8.18;6.72;;;-0.60;99.90;;;;;;5009497;28;20261;-72
2021/01/15 01:08:37;;;;;;;11.77;7.75;;;-0.70;99.90;;;;;;5009199;28;20221;-72
2021/01/15 01:11:03;;;;;;;8.93;6.60;;;-0.70;99.90;;;;;;5009062;28;20206;-73
2021/01/15 01:13:29;;;;;;;7.38;5.90;;;-0.70;99.90;;;;;;5008718;28;20205;-72
2021/01/15 01:15:55;;;;;;;9.45;7.25;;;-0.80;99.90;;;;;;5007785;28;20225;-72
2021/01/15 01:18:22;;;;;;;8.60;6.95;;;-0.80;99.90;;;;;;5009102;28;20194;-73
2021/01/15 01:20:49;;;;;;;12.18;6.40;;;-0.80;99.90;;;;;;5008892;28;20198;-72
2021/01/15 01:23:15;;;;;;;9.00;6.00;;;-0.80;99.90;;;;;;5008647;28;20199;-72
2021/01/15 01:25:41;;;;;;;10.45;5.95;;;-0.80;99.90;;;;;;5009234;28;20245;-72
2021/01/15 01:28:07;;;;;;;6.70;5.55;;;-0.80;99.90;;;;;;5030379;22;20235;-90
2021/01/15 01:30:36;;;;;;;8.55;5.72;;;-0.80;99.90;;;;;;4993226;28;20214;-91
2021/01/15 01:33:02;;;;;;;8.15;5.95;;;-0.80;99.90;;;;;;4992339;28;20203;-89
2021/01/15 01:35:28;;;;;;;11.38;5.25;;;-0.80;99.90;;;;;;4992766;28;20617;-90
2021/01/15 01:38:09;;;;;;;9.20;5.45;;;-0.90;99.90;;;;;;4992389;28;20227;-90
2021/01/15 01:40:36;;;;;;;9.68;5.45;;;-0.90;99.90;;;;;;4992796;28;20210;-89
2021/01/15 01:43:03;;;;;;;5.85;4.90;;;-0.90;99.90;;;;;;4993000;28;20214;-91
2021/01/15 01:45:30;;;;;;;5.57;5.00;;;-0.90;99.90;;;;;;4992853;28;20211;-90
2021/01/15 01:47:58;;;;;;;5.30;4.32;;;-0.90;99.90;;;;;;4992366;28;20242;-90
2021/01/15 01:50:25;;;;;;;6.00;5.25;;;-1.00;99.90;;;;;;4992484;28;20290;-90
2021/01/15 01:52:52;;;;;;;4.60;3.97;;;-0.90;99.90;;;;;;4992755;28;20691;-90
2021/01/15 01:55:19;;;;;;;4.95;4.55;;;-0.90;99.90;;;;;;4990569;28;20318;-89
2021/01/15 01:57:46;;;;;;;4.75;3.95;;;-0.90;99.90;;;;;;4993472;28;20645;-90
2021/01/15 02:00:13;;;;;;;5.70;4.10;;;-0.90;99.90;;;;;;4995881;28;20295;-92
2021/01/15 02:02:40;;;;;;;4.20;3.80;;;-0.90;99.90;;;;;;4993518;28;20202;-90
2021/01/15 02:05:07;;;;;;;8.20;4.47;;;-0.90;99.90;;;;;;4995898;28;20206;-92
2021/01/15 02:07:34;;;;;;;4.57;3.70;;;-0.90;99.90;;;;;;5016914;28;20234;-94
2021/01/15 02:10:05;;;;;;;6.20;3.78;;;-0.90;99.90;;;;;;5004052;28;20249;-89
2021/01/15 02:12:45;;;;;;;4.10;3.55;;;-0.90;99.90;;;;;;4992955;28;20199;-90
2021/01/15 02:15:19;;;;;;;3.97;3.28;;;-0.90;99.90;;;;;;4992869;28;20239;-91
2021/01/15 02:17:51;;;;;;;4.25;3.30;;;-0.90;99.90;;;;;;4992929;28;20206;-91
2021/01/15 02:20:37;;;;;;;3.75;3.17;;;-0.90;99.90;;;;;;4992645;28;20215;-91
2021/01/15 02:23:11;;;;;;;4.28;3.45;;;-0.90;99.90;;;;;;4992015;28;20230;-89
2021/01/15 02:26:04;;;;;;;4.28;3.30;;;-0.90;99.90;;;;;;4992474;28;20256;-90
2021/01/15 02:29:01;;;;;;;3.60;3.28;;;-0.90;99.90;;;;;;4992494;28;20245;-91
2021/01/15 02:31:56;;;;;;;4.30;3.65;;;-0.90;99.90;;;;;;4994785;28;20207;-89
2021/01/15 02:34:31;;;;;;;4.05;3.38;;;-0.90;99.90;;;;;;4992441;28;20230;-91
2021/01/15 02:37:03;;;;;;;3.65;3.35;;;-1.00;99.90;;;;;;4992467;28;20206;-90
2021/01/15 02:39:41;;;;;;;4.88;3.72;;;-0.90;99.90;;;;;;4992897;28;20239;-91
2021/01/15 02:42:09;;;;;;;7.13;4.22;;;-0.90;99.90;;;;;;4992624;28;20242;-91
2021/01/15 02:44:38;;;;;;;4.95;4.05;;;-0.90;99.90;;;;;;4993280;28;20211;-92
2021/01/15 02:47:07;;;;;;;6.30;3.50;;;-0.90;99.90;;;;;;4993855;28;20238;-91
2021/01/15 02:49:36;;;;;;;5.03;3.90;;;-0.90;99.90;;;;;;4991911;28;20227;-90
2021/01/15 02:52:05;;;;;;;6.57;3.60;;;-1.00;99.90;;;;;;4991377;28;20191;-90
2021/01/15 02:54:34;;;;;;;3.90;3.50;;;-1.00;99.90;;;;;;4992463;28;20684;-89
2021/01/15 02:57:00;;;;;;;3.65;3.10;;;-1.00;99.90;;;;;;4991866;28;20221;-89
2021/01/15 02:59:26;;;;;;;6.72;3.70;;;-1.00;99.90;;;;;;4994902;28;20289;-91
2021/01/15 03:02:01;;;;;;;3.85;3.45;;;-1.00;99.90;;;;;;4994835;28;20298;-90
2021/01/15 03:04:34;;;;;;;5.05;3.35;;;-1.00;99.90;;;;;;4995419;28;20217;-90
2021/01/15 03:07:03;;;;;;;4.22;3.53;;;-1.00;99.90;;;;;;4994912;28;20226;-90
2021/01/15 03:09:35;;;;;;;5.25;4.10;;;-1.00;99.90;;;;;;4995184;28;20235;-90
2021/01/15 03:12:03;;;;;;;5.75;3.15;;;-1.00;99.90;;;;;;4994799;28;20653;-90
2021/01/15 03:14:32;;;;;;;5.20;2.92;;;-1.10;99.90;;;;;;4995267;28;20203;-91
2021/01/15 03:17:00;;;;;;;5.85;3.58;;;-1.20;99.90;;;;;;4994657;28;20253;-90
2021/01/15 03:19:26;;;;;;;4.18;3.13;;;-1.20;99.90;;;;;;4995676;28;20586;-90
2021/01/15 03:21:53;;;;;;;3.67;3.38;;;-1.20;99.90;;;;;;4999224;28;20328;-89
2021/01/15 03:24:20;;;;;;;3.00;2.80;;;-1.20;99.90;;;;;;5001512;28;20318;-90
2021/01/15 03:26:46;;;;;;;3.85;3.13;;;-1.30;99.90;;;;;;4994625;28;20231;-91
2021/01/15 03:29:14;;;;;;;3.67;3.20;;;-1.30;99.90;;;;;;4994784;28;20297;-90
2021/01/15 03:31:41;;;;;;;4.10;3.70;;;-1.30;99.90;;;;;;4994286;28;20673;-90
2021/01/15 03:34:08;;;;;;;4.57;3.22;;;-1.30;99.90;;;;;;4994930;28;20235;-90
2021/01/15 03:36:35;;;;;;;3.30;3.00;;;-1.30;99.90;;;;;;5002575;28;20183;-93
2021/01/15 03:39:01;;;;;;;4.40;3.40;;;-1.40;99.90;;;;;;5019532;28;20227;-93
2021/01/15 03:41:28;;;;;;;5.25;3.10;;;-1.30;99.90;;;;;;5000262;28;20242;-90
2021/01/15 03:43:54;;;;;;;3.83;3.50;;;-1.30;99.90;;;;;;4994595;28;20199;-90
2021/01/15 03:46:21;;;;;;;3.22;2.92;;;-1.30;99.90;;;;;;4994344;28;20321;-91
2021/01/15 03:48:47;;;;;;;6.95;3.65;;;-1.30;99.90;;;;;;4994435;28;20708;-90
2021/01/15 03:51:13;;;;;;;4.18;2.92;;;-1.30;99.90;;;;;;4994880;28;20281;-90
2021/01/15 03:53:44;;;;;;;3.92;3.63;;;-1.40;99.90;;;;;;4994486;28;20210;-91
2021/01/15 03:56:10;;;;;;;4.00;3.10;;;-1.40;99.90;;;;;;4994504;28;20211;-90
2021/01/15 03:58:37;;;;;;;5.75;3.30;;;-1.40;99.90;;;;;;4994703;28;20243;-90
2021/01/15 04:01:04;;;;;;;3.85;3.25;;;-1.40;99.90;;;;;;4994238;28;20660;-89
2021/01/15 04:03:30;;;;;;;2.95;2.65;;;-1.40;99.90;;;;;;4994236;28;20259;-90
2021/01/15 04:05:56;;;;;;;3.38;3.05;;;-1.50;99.90;;;;;;4993974;28;20218;-91
2021/01/15 04:08:22;;;;;;;3.85;3.15;;;-1.50;99.90;;;;;;4993928;28;20269;-90
2021/01/15 04:10:48;;;;;;;5.97;3.40;;;-1.50;99.90;;;;;;4994746;28;20199;-91
2021/01/15 04:13:15;;;;;;;3.42;2.85;;;-1.60;99.90;;;;;;4994463;28;20211;-90
2021/01/15 04:15:42;;;;;;;3.90;3.10;;;-1.60;99.90;;;;;;4994941;28;20207;-90
2021/01/15 04:18:08;;;;;;;3.80;3.28;;;-1.60;99.90;;;;;;4994570;28;20223;-90
2021/01/15 04:20:35;;;;;;;3.55;2.80;;;-1.60;99.90;;;;;;4994871;28;20215;-90
2021/01/15 04:23:01;;;;;;;3.47;3.08;;;-1.60;99.90;;;;;;4994160;28;20206;-90
2021/01/15 04:25:27;;;;;;;4.15;2.80;;;-1.60;99.90;;;;;;4994474;28;20210;-90
2021/01/15 04:27:53;;;;;;;3.25;2.95;;;-1.60;99.90;;;;;;4994292;28;20281;-91
2021/01/15 04:30:20;;;;;;;4.90;3.33;;;-1.60;99.90;;;;;;4996423;28;20214;-91
2021/01/15 04:32:49;;;;;;;3.83;3.10;;;-1.60;99.90;;;;;;5012712;28;20225;-94
2021/01/15 04:35:19;;;;;;;4.72;3.47;;;-1.70;99.90;;;;;;5017311;28;20214;-93
2021/01/15 04:37:47;;;;;;;3.45;3.15;;;-1.70;99.90;;;;;;5001819;28;20245;-92
2021/01/15 04:40:37;;;;;;;4.90;3.20;;;-1.80;99.90;;;;;;4995069;28;20199;-92
2021/01/15 04:43:06;;;;;;;3.75;3.38;;;-1.80;99.90;;;;;;5003219;28;20241;-91
2021/01/15 04:45:32;;;;;;;5.20;3.25;;;-1.90;99.90;;;;;;5014127;28;20206;-91
2021/01/15 04:48:01;;;;;;;4.75;3.67;;;-1.90;99.90;;;;;;5015497;28;20317;-91
2021/01/15 04:50:28;;;;;;;4.25;3.20;;;-1.90;99.90;;;;;;5015234;28;20217;-93
2021/01/15 04:52:55;;;;;;;4.57;4.05;;;-2.00;99.90;;;;;;5014653;28;20218;-94
2021/01/15 04:55:26;;;;;;;4.20;3.20;;;-2.00;99.90;;;;;;5020411;28;20218;-94
2021/01/15 04:57:54;;;;;;;7.47;3.60;;;-2.00;99.90;;;;;;5020393;28;20246;-93
2021/01/15 05:00:22;;;;;;;4.00;3.60;;;-2.10;99.90;;;;;;5016809;28;20210;-92
2021/01/15 05:02:52;;;;;;;4.65;3.30;;;-2.10;99.90;;;;;;5016087;28;20203;-92
2021/01/15 05:05:24;;;;;;;4.72;3.40;;;-2.20;99.90;;;;;;5018723;28;20203;-92
2021/01/15 05:08:09;;;;;;;4.80;3.15;;;-2.20;99.90;;;;;;5026825;22;20218;-70
2021/01/15 05:10:41;;;;;;;6.05;3.83;;;-2.30;99.90;;;;;;5048945;28;20212;-70
2021/01/15 05:13:09;;;;;;;4.07;3.50;;;-2.30;99.90;;;;;;5048729;28;20229;-69
2021/01/15 05:15:38;;;;;;;5.65;3.58;;;-2.30;99.90;;;;;;5049798;28;20221;-70
2021/01/15 05:18:07;;;;;;;6.30;3.40;;;-2.40;99.90;;;;;;5049763;28;20201;-70
2021/01/15 05:20:35;;;;;;;3.60;3.08;;;-2.40;99.90;;;;;;5050219;28;20205;-71
2021/01/15 05:23:02;;;;;;;3.55;3.10;;;-2.40;99.90;;;;;;5052735;28;20205;-71
2021/01/15 05:25:29;;;;;;;5.85;3.67;;;-2.50;99.90;;;;;;5039332;28;20272;-70
2021/01/15 05:27:56;;;;;;;5.20;3.90;;;-2.60;99.90;;;;;;5029610;28;20225;-73
2021/01/15 05:30:24;;;;;;;5.75;3.40;;;-2.70;99.90;;;;;;5029036;28;20213;-72
2021/01/15 05:32:51;;;;;;;6.65;3.70;;;-2.70;99.90;;;;;;5029835;28;20647;-73
2021/01/15 05:35:18;;;;;;;3.92;3.47;;;-2.60;99.90;;;;;;5029208;28;20229;-73
2021/01/15 05:37:57;;;;;;;3.50;3.20;;;-2.70;99.90;;;;;;5029172;28;20205;-73
2021/01/15 05:40:40;;;;;;;4.72;3.70;;;-2.80;99.90;;;;;;5029201;28;20226;-73
2021/01/15 05:43:07;;;;;;;6.95;3.78;;;-2.80;99.90;;;;;;5028158;28;20202;-73
2021/01/15 05:45:33;;;;;;;3.80;3.45;;;-2.80;99.90;;;;;;5028919;28;20323;-73
2021/01/15 05:48:00;;;;;;;6.63;3.40;;;-2.90;99.90;;;;;;5028789;28;20257;-73
2021/01/15 05:50:39;;;;;;;4.43;3.40;;;-2.90;99.90;;;;;;5028927;28;20201;-73
2021/01/15 05:53:07;;;;;;;4.35;3.70;;;-2.90;99.90;;;;;;5028199;28;20340;-73
2021/01/15 05:55:34;;;;;;;4.57;3.60;;;-2.90;99.90;;;;;;5029197;28;20221;-72
2021/01/15 05:58:09;;;;;;;5.18;3.50;;;-2.90;99.90;;;;;;5029115;28;20202;-72
2021/01/15 06:00:38;;;;;;;6.20;3.55;;;-2.80;99.90;;;;;;5029097;28;20205;-73
2021/01/15 06:03:06;;;;;;;3.83;3.40;;;-2.90;99.90;;;;;;5028006;28;20621;-72
2021/01/15 06:05:34;;;;;;;4.82;4.28;;;-2.90;99.90;;;;;;5029004;28;20253;-73
2021/01/15 06:08:01;;;;;;;7.35;4.28;;;-3.00;99.90;;;;;;5028796;28;20253;-73
2021/01/15 06:10:40;;;;;;;6.00;4.30;;;-3.00;99.90;;;;;;5029228;28;20194;-75
2021/01/15 06:13:07;;;;;;;5.18;4.20;;;-3.00;99.90;;;;;;5028341;28;20255;-74
2021/01/15 06:15:44;;;;;;;7.85;5.03;;;-3.10;99.90;;;;;;5029235;28;20228;-72
2021/01/15 06:18:16;;;;;;;5.28;4.43;;;-3.10;99.90;;;;;;5028482;28;20206;-72
2021/01/15 06:20:44;;;;;;;8.00;4.40;;;-3.00;99.90;;;;;;5028763;28;20198;-72
2021/01/15 06:23:13;;;;;;;5.60;4.75;;;-3.00;99.90;;;;;;5028028;28;20288;-72
2021/01/15 06:25:56;;;;;;;8.60;5.00;;;-3.00;99.90;;;;;;5028741;28;20226;-72
2021/01/15 06:28:33;;;;;;;7.63;4.72;;;-3.00;99.90;;;;;;5029142;28;20641;-73
2021/01/15 06:31:02;;;;;;;5.45;4.68;;;-3.00;99.90;;;;;;5029078;28;20209;-73
2021/01/15 06:33:28;;;;;;;5.70;5.15;;;-3.00;99.90;;;;;;5030419;28;20197;-73
2021/01/15 06:35:54;;;;;;;5.85;4.60;;;-3.00;99.90;;;;;;5032797;28;20237;-73
2021/01/15 06:38:27;;;;;;;8.77;4.28;;;-3.00;99.90;;;;;;5033472;28;20205;-71
2021/01/15 06:40:55;;;;;;;4.88;3.75;;;-3.10;99.90;;;;;;5031720;28;20263;-72
2021/01/15 06:43:22;;;;;;;5.68;4.75;;;-3.10;99.90;;;;;;5031844;28;20202;-73
2021/01/15 06:45:50;;;;;;;5.35;4.85;;;-3.10;99.90;;;;;;5032395;28;20218;-75
2021/01/15 06:48:18;;;;;;;6.00;3.95;;;-3.10;99.90;;;;;;5032948;28;20230;-73
2021/01/15 06:50:46;;;;;;;6.55;4.90;;;-3.20;99.90;;;;;;5033428;28;20212;-74
2021/01/15 06:53:22;;;;;;;6.30;5.30;;;-3.20;99.90;;;;;;5032553;28;20201;-73
2021/01/15 06:55:50;;;;;;;6.53;4.75;;;-3.20;99.90;;;;;;5032302;28;20760;-74
2021/01/15 06:58:28;;;;;;;7.72;5.50;;;-3.30;99.90;;;;;;5033454;28;20202;-73
2021/01/15 07:01:19;;;;;;;6.15;4.60;;;-3.30;99.90;;;;;;5033901;28;20291;-73
2021/01/15 07:04:16;;;;;;;6.95;4.75;;;-3.30;99.90;;;;;;5032942;28;20751;-73
2021/01/15 07:07:06;;;;;;;7.13;4.78;;;-3.30;99.90;;;;;;5032965;28;20272;-71
2021/01/15 07:09:33;;;;;;;6.15;4.63;;;-3.30;99.90;;;;;;5030856;28;20210;-71
2021/01/15 07:12:08;;;;;;;6.80;5.40;;;-3.20;99.90;;;;;;5033230;28;20575;-72
2021/01/15 07:14:44;;;;;;;6.10;5.20;;;-3.20;99.90;;;;;;5033347;28;20249;-71
2021/01/15 07:17:18;;;;;;;5.40;4.85;;;-3.20;99.90;;;;;;5032707;28;20715;-72
2021/01/15 07:19:45;;;;;;;5.45;4.53;;;-3.20;99.90;;;;;;5033105;28;20962;-72
2021/01/15 07:22:13;;;;;;;5.70;4.85;;;-3.20;99.90;;;;;;5032166;28;20201;-71
2021/01/15 07:24:41;;;;;;;6.25;4.80;;;-3.20;99.90;;;;;;5032871;28;20702;-72
2021/01/15 07:27:09;;;;;;;6.40;4.45;;;-3.20;99.90;;;;;;5032523;28;20225;-71
2021/01/15 07:29:43;;;;;;;7.82;5.35;;;-3.20;99.90;;;;;;5076382;22;20243;-93
2021/01/15 07:32:18;;;;;;;6.45;5.15;;;-3.20;99.90;;;;;;5073551;28;21259;-93
2021/01/15 07:34:50;;;;;;;6.45;5.25;;;-3.20;99.90;;;;;;5078368;28;20173;-95
2021/01/15 07:37:22;;;;;;;7.00;5.00;;;-3.10;99.90;;;;;;5078241;28;20185;-96
2021/01/15 07:40:12;;;;;;;6.60;4.82;;;-3.10;99.90;;;;;;5078586;28;20201;-95
2021/01/15 07:42:46;;;;;;;8.80;6.40;;;-3.00;99.90;;;;;;5077162;28;20447;-94
2021/01/15 07:45:50;;;;;;;8.27;5.53;;;-3.00;99.90;;;;;;5078009;28;20503;-94
2021/01/15 07:48:24;;;;;;;6.72;5.30;;;-2.90;99.90;;;;;;5066391;28;20228;-91
2021/01/15 07:50:52;;;;;;;6.18;5.57;;;-2.80;99.90;;;;;;5075045;28;20182;-92
2021/01/15 07:53:27;;;;;;;5.30;4.80;;;-2.70;99.90;;;;;;5080922;22;20724;-72
2021/01/15 07:55:56;;;;;;;6.32;5.70;;;-2.60;99.90;;;;;;5014667;28;20715;-72
2021/01/15 07:58:23;;;;;;;6.40;5.00;;;-2.50;99.90;;;;;;5029750;28;20661;-72
2021/01/15 08:00:50;;;;;;;9.98;5.40;;;-2.50;99.90;;;;;;5029412;28;20206;-72
2021/01/15 08:03:17;;;;;;;5.97;5.18;;;-2.40;99.90;;;;;;5024708;28;20208;-72
2021/01/15 08:05:46;;;;;;;8.30;5.43;;;-2.30;99.90;;;;;;5029908;28;20271;-72
2021/01/15 08:08:14;;;;;;;8.23;6.13;;;-2.10;99.90;;;;;;5029713;28;20272;-72
2021/01/15 08:10:45;;;;;;;7.00;5.85;;;-2.00;99.90;;;;;;5029294;28;20733;-72
2021/01/15 08:13:29;;;;;;;8.77;6.32;;;-1.80;99.90;;;;;;5028829;28;20224;-72
2021/01/15 08:15:56;;;;;;;6.90;5.70;;;-1.60;99.90;;;;;;5029905;28;20351;-72
2021/01/15 08:18:24;;;;;;;8.85;6.45;;;-1.30;99.90;;;;;;5029502;28;20201;-72
2021/01/15 08:20:54;;;;;;;7.40;6.63;;;-0.80;99.90;;;;;;5029040;28;20207;-72
2021/01/15 08:23:23;;;;;;;9.30;6.43;;;-0.20;99.90;;;;;;5028895;28;20808;-72
2021/01/15 08:25:55;;;;;;;8.25;5.95;;;0.40;99.90;;;;;;5029122;28;20717;-73
2021/01/15 08:28:21;;;;;;;6.63;5.55;;;0.90;99.90;;;;;;5029554;28;20221;-72
2021/01/15 08:30:58;;;;;;;6.70;5.80;;;1.40;99.90;;;;;;5029463;28;20221;-72
2021/01/15 08:33:25;;;;;;;7.55;5.47;;;2.00;99.90;;;;;;5028866;28;20217;-72
2021/01/15 08:35:57;;;;;;;9.32;5.88;;;2.40;99.90;;;;;;5029853;28;20333;-72
2021/01/15 08:38:29;;;;;;;8.77;6.15;;;2.60;99.90;;;;;;5018941;28;20194;-72
2021/01/15 08:40:56;;;;;;;7.13;6.43;;;2.80;99.90;;;;;;5018973;28;20209;-72
2021/01/15 08:43:24;;;;;;;7.68;6.20;;;3.10;99.90;;;;;;5028004;28;20613;-72
2021/01/15 08:45:50;;;;;;;6.72;5.63;;;2.90;99.90;;;;;;5026630;28;20260;-72
2021/01/15 08:48:17;;;;;;;5.22;4.70;;;2.90;99.90;;;;;;5017217;28;20226;-72
2021/01/15 08:50:43;;;;;;;6.65;5.25;;;3.20;99.90;;;;;;5026913;28;20662;-72
2021/01/15 08:53:15;;;;;;;6.22;5.07;;;3.40;99.90;;;;;;5028224;28;20670;-73
2021/01/15 08:55:44;;;;;;;7.07;5.82;;;3.30;99.90;;;;;;5027200;28;20226;-73
2021/01/15 08:58:10;;;;;;;6.22;5.13;;;3.30;99.90;;;;;;5028847;28;20205;-72
2021/01/15 09:00:36;;;;;;;6.05;5.45;;;3.40;99.90;;;;;;5027890;28;20209;-72
2021/01/15 09:03:05;;;;;;;7.28;5.70;;;3.60;99.90;;;;;;5028228;28;20264;-72
2021/01/15 09:05:32;;;;;;;6.78;6.03;;;3.80;99.90;;;;;;5028629;28;20222;-72
2021/01/15 09:08:02;;;;;;;8.02;5.50;;;4.10;99.90;;;;;;5028758;28;20222;-72
2021/01/15 09:10:30;;;;;;;6.22;5.60;;;4.40;99.90;;;;;;5027660;28;20209;-72
2021/01/15 09:13:02;;;;;;;6.78;5.45;;;4.40;99.90;;;;;;5027608;28;20280;-72
2021/01/15 09:15:29;;;;;;;8.32;5.70;;;4.30;99.90;;;;;;5027987;28;20236;-72
2021/01/15 09:17:57;;;;;;;6.97;5.60;;;3.90;99.90;;;;;;5028631;28;20194;-72
2021/01/15 09:20:24;;;;;;;7.75;5.45;;;4.00;99.90;;;;;;5027915;28;20332;-72
2021/01/15 09:22:51;;;;;;;7.10;5.20;;;4.00;99.90;;;;;;5028337;28;20286;-72
2021/01/15 09:25:18;;;;;;;5.90;5.32;;;4.40;99.90;;;;;;5028058;28;20260;-72
2021/01/15 09:27:45;;;;;;;5.95;4.85;;;5.70;99.90;;;;;;5028429;28;20279;-70
2021/01/15 09:30:13;;;;;;;6.20;4.57;;;7.80;99.90;;;;;;5028186;28;20206;-73
2021/01/15 09:32:42;;;;;;;7.80;5.85;;;9.60;96.60;;;;;;5028130;28;20228;-71
2021/01/15 09:35:10;;;;;;;4.50;4.07;;;10.80;92.50;;;;;;5028294;28;20222;-71
2021/01/15 09:37:36;;;;;;;5.45;4.80;;;12.60;90.80;;;;;;5028464;28;20204;-71
2021/01/15 09:40:04;;;;;;;4.75;4.35;;;13.70;86.50;;;;;;5027300;28;20238;-71
2021/01/15 09:42:30;;;;;;;6.82;5.53;;;15.00;83.40;;;;;;5025179;28;20206;-71
2021/01/15 09:44:57;;;;;;;5.75;5.10;;;15.70;79.40;;;;;;5028471;28;20229;-71
2021/01/15 09:47:23;;;;;;;5.68;5.18;;;15.70;78.50;;;;;;5027543;28;20241;-71
2021/01/15 09:49:49;;;;;;;5.13;4.63;;;15.10;76.70;;;;;;5027769;28;20673;-70
2021/01/15 09:52:15;;;;;;;4.80;4.40;;;15.50;77.20;;;;;;5026539;28;20201;-71
2021/01/15 09:54:42;;;;;;;5.53;5.03;;;16.20;75.00;;;;;;5027928;28;20238;-70
2021/01/15 09:57:08;;;;;;;5.73;5.13;;;16.10;72.80;;;;;;5028257;28;20224;-70
2021/01/15 09:59:34;;;;;;;10.50;5.93;;;16.00;75.30;;;;;;5028412;28;20464;-70
2021/01/15 10:02:01;;;;;;;6.20;5.60;;;16.60;73.90;;;;;;5027796;28;20212;-71
2021/01/15 10:04:27;;;;;;;6.47;5.63;;;16.60;74.40;;;;;;5027611;28;20229;-71
2021/01/15 10:06:54;;;;;;;6.22;5.55;;;17.30;73.10;;;;;;5029132;28;20857;-71
2021/01/15 10:09:20;;;;;;;7.47;5.87;;;18.30;70.00;;;;;;5023133;28;20206;-71
2021/01/15 10:11:47;;;;;;;8.57;6.03;;;18.50;70.20;;;;;;5032027;28;20526;-71
2021/01/15 10:14:15;;;;;;;7.03;6.13;;;19.20;67.30;;;;;;5031934;28;20484;-71
2021/01/15 10:16:43;;;;;;;7.13;6.43;;;18.90;68.40;;;;;;5031642;28;20456;-71
2021/01/15 10:19:10;;;;;;;7.17;6.17;;;19.60;65.30;;;;;;5031517;28;20475;-71
2021/01/15 10:21:39;;;;;;;7.57;6.50;;;19.90;65.10;;;;;;5031641;28;20464;-71
2021/01/15 10:24:06;;;;;;;7.50;6.70;;;19.70;64.80;;;;;;5031794;28;20483;-71
2021/01/15 10:26:34;;;;;;;7.10;6.50;;;18.40;66.90;;;;;;5032250;28;20460;-72
2021/01/15 10:29:05;;;;;;;12.80;6.40;;;18.60;66.20;;;;;;5031885;28;20448;-71
2021/01/15 10:31:33;;;;;;;7.93;6.37;;;19.60;64.80;;;;;;5031521;28;20460;-70
2021/01/15 10:34:00;;;;;;;7.30;6.50;;;19.30;62.50;;;;;;5031580;28;20480;-72
2021/01/15 10:36:29;;;;;;;6.90;6.30;;;19.80;63.70;;;;;;5031545;28;20467;-71
2021/01/15 10:38:55;;;;;;;7.27;6.50;;;20.10;63.10;;;;;;5031781;28;20459;-71
2021/01/15 10:41:32;;;;;;;9.47;6.80;;;20.00;62.80;;;;;;5030605;28;20979;-71
2021/01/15 10:43:59;;;;;;;7.00;6.40;;;19.70;62.60;;;;;;5031381;28;20510;-70
2021/01/15 10:46:32;;;;;;;7.53;6.80;;;19.20;63.20;;;;;;5031071;28;20464;-71
2021/01/15 10:48:59;;;;;;;6.40;5.80;;;19.60;63.60;;;;;;5030646;28;20488;-71
2021/01/15 10:51:25;;;;;;;7.50;6.73;;;20.70;61.40;;;;;;5030540;28;20464;-71
2021/01/15 10:53:52;;;;;;;8.10;6.60;;;21.10;59.60;;;;;;5030283;28;20472;-71
2021/01/15 10:56:18;;;;;;;10.07;6.50;;;21.30;60.10;;;;;;5031759;28;20526;-71
2021/01/15 10:58:44;;;;;;;7.53;5.83;;;21.90;59.10;;;;;;5031766;28;20464;-71
2021/01/15 11:01:11;;;;;;;6.60;5.93;;;20.40;59.20;;;;;;5031344;28;20460;-71
2021/01/15 11:03:37;;;;;;;6.40;5.80;;;21.50;58.90;;;;;;5031668;28;20468;-71
2021/01/15 11:06:03;;;;;;;6.60;6.00;;;21.90;57.80;;;;;;5031554;28;20463;-71
2021/01/15 11:08:31;;;;;;;6.37;5.77;;;21.70;58.60;;;;;;5030798;28;20499;-71
2021/01/15 11:10:58;;;;;;;5.70;5.20;;;20.40;59.20;;;;;;5031188;28;20460;-70
2021/01/15 11:13:25;;;;;;;7.10;6.50;;;21.10;57.80;;;;;;5030450;28;20522;-71
2021/01/15 11:15:51;;;;;;;7.33;6.63;;;20.70;58.30;;;;;;5031265;28;20480;-71
2021/01/15 11:18:17;;;;;;;6.40;5.57;;;19.50;58.90;;;;;;5030029;28;20452;-71
2021/01/15 11:20:44;;;;;;;6.10;5.60;;;19.50;58.90;;;;;;5030168;28;20460;-70
2021/01/15 11:23:13;;;;;;;6.47;5.87;;;19.50;59.40;;;;;;5030527;28;20488;-71
2021/01/15 11:25:42;;;;;;;6.77;6.17;;;18.90;60.00;;;;;;5031164;28;20491;-71
2021/01/15 11:28:09;;;;;;;6.00;5.50;;;18.10;59.40;;;;;;5030986;28;20491;-73
2021/01/15 11:30:35;;;;;;;7.00;6.30;;;18.50;60.60;;;;;;5030301;28;20467;-73
2021/01/15 11:33:02;;;;;;;8.63;7.10;;;18.50;59.80;;;;;;5030344;28;20909;-73
2021/01/15 11:35:28;;;;;;;8.13;6.57;;;18.40;60.60;;;;;;5030346;28;20480;-73
2021/01/15 11:37:58;;;;;;;7.07;6.40;;;19.00;60.10;;;;;;5030735;28;20464;-73
2021/01/15 11:40:24;;;;;;;7.83;6.80;;;19.40;59.00;;;;;;5030048;28;20998;-72
2021/01/15 11:42:54;;;;;;;7.93;7.13;;;19.70;58.90;;;;;;5029470;28;20460;-71
2021/01/15 11:45:21;;;;;;;8.77;6.90;;;18.70;59.60;;;;;;5030165;28;20886;-70
2021/01/15 11:47:51;;;;;;;7.20;6.50;;;18.00;60.00;;;;;;5030510;28;20859;-72
2021/01/15 11:50:17;;;;;;;8.90;7.03;;;16.90;61.40;;;;;;5029694;28;20468;-73
2021/01/15 11:52:43;;;;;;;8.43;7.10;;;16.80;61.80;;;;;;5030162;28;20940;-72
2021/01/15 11:55:11;;;;;;;7.23;6.53;;;15.90;62.70;;;;;;5029685;28;20549;-72
2021/01/15 11:57:37;;;;;;;8.30;6.50;;;15.60;62.70;;;;;;5030638;28;20457;-73
2021/01/15 12:00:05;;;;;;;7.13;6.43;;;15.90;62.90;;;;;;5030102;28;20841;-73
2021/01/15 12:02:32;;;;;;;7.03;6.33;;;16.10;62.30;;;;;;5029569;28;20964;-70
2021/01/15 12:04:58;;;;;;;7.30;6.60;;;15.30;63.10;;;;;;5030147;28;20857;-70
2021/01/15 12:07:24;;;;;;;7.65;6.88;;;15.30;64.10;;;;;;5029585;28;20504;-70
2021/01/15 12:09:50;;;;;;;9.57;7.15;;;15.70;63.80;;;;;;5029872;28;20202;-70
2021/01/15 12:12:17;;;;;;;7.53;6.82;;;15.80;63.60;;;;;;5029517;28;20570;-70
2021/01/15 12:14:43;;;;;;;6.65;6.03;;;15.60;63.40;;;;;;5030109;28;20241;-70
2021/01/15 12:17:09;;;;;;;7.82;6.13;;;15.50;62.20;;;;;;5029759;28;20202;-69
2021/01/15 12:19:36;;;;;;;8.52;6.57;;;15.20;63.10;;;;;;5028934;28;20212;-70
2021/01/15 12:22:02;;;;;;;7.32;6.22;;;14.80;62.70;;;;;;5029250;28;20696;-72
2021/01/15 12:24:28;;;;;;;9.70;7.80;;;14.10;64.20;;;;;;5029607;28;20234;-72
2021/01/15 12:26:59;;;;;;;8.05;7.00;;;14.20;64.40;;;;;;5029800;28;20684;-72
2021/01/15 12:29:25;;;;;;;8.07;6.93;;;14.30;64.80;;;;;;5028862;28;20696;-71
2021/01/15 12:31:54;;;;;;;10.50;7.45;;;13.70;66.10;;;;;;5028913;28;20206;-71
2021/01/15 12:34:20;;;;;;;8.90;7.93;;;13.60;65.50;;;;;;5029228;28;20995;-72
2021/01/15 12:36:47;;;;;;;8.90;7.00;;;13.10;67.00;;;;;;5029689;28;20208;-70
2021/01/15 12:39:13;;;;;;;8.55;7.65;;;12.30;68.80;;;;;;5029207;28;20202;-72
2021/01/15 12:41:39;;;;;;;8.88;8.02;;;12.00;69.40;;;;;;5028807;28;20230;-72
2021/01/15 12:44:06;;;;;;;7.55;6.82;;;11.70;70.20;;;;;;5028901;28;20639;-72
2021/01/15 12:46:33;;;;;;;8.20;7.30;;;11.40;70.40;;;;;;5029333;28;20197;-72
2021/01/15 12:48:59;;;;;;;7.55;6.85;;;11.10;70.70;;;;;;5029299;28;20225;-72
2021/01/15 12:51:26;;;;;;;7.95;7.00;;;10.50;71.90;;;;;;5027942;28;20216;-73
2021/01/15 12:53:53;;;;;;;8.88;7.65;;;10.30;73.20;;;;;;5028631;28;20213;-73
2021/01/15 12:56:19;;;;;;;7.97;6.78;;;10.60;72.40;;;;;;5027953;28;20213;-72
2021/01/15 12:58:45;;;;;;;6.80;6.10;;;11.10;70.80;;;;;;5029235;28;20201;-72